Virtual Airlines Manager

 METAR AND TAF INFORMATION
METAR FOR GMMN
ADDS - METARS form results

(0526 UTC 29 June 2017)
Data provider http://aviationweather.gov/adds/metars/
 
METAR text: GMMN 290500Z 10003KT 9999 FEW016 19/17 Q1018 NOSIG
Conditions at: GMMN (NOUASSEUR/CASABL, MA) observed 0500 UTC 29 June 2017
Temperature: 19.0°C (66°F)
Dewpoint: 17.0°C (63°F) [RH = 88%]
Pressure (altimeter): 30.06 inches Hg (1018.0 mb)
Winds: from the E (100 degrees) at 3 MPH (3 knots; 1.6 m/s)
Visibility: 6 or more miles (10+ km)
Ceiling: at least 12,000 feet AGL
Clouds: few clouds at 1600 feet AGL
Weather: no significant weather observed at this time

METAR text: GMMN 290430Z 09004KT 9999 FEW016 19/18 Q1018 NOSIG
Conditions at: GMMN (NOUASSEUR/CASABL, MA) observed 0430 UTC 29 June 2017
Temperature: 19.0°C (66°F)
Dewpoint: 18.0°C (64°F) [RH = 94%]
Pressure (altimeter): 30.06 inches Hg (1018.0 mb)
Winds: from the E (90 degrees) at 5 MPH (4 knots; 2.1 m/s)
Visibility: 6 or more miles (10+ km)
Ceiling: at least 12,000 feet AGL
Clouds: few clouds at 1600 feet AGL
Weather: no significant weather observed at this time

Forecast for: GMMN (NOUASSEUR/CASABL, MA)
Text: TAF GMMN 282300Z 2900/3006 02008KT 8000 FEW016
Forecast period: 0000 to 1000 UTC 29 June 2017
Forecast type: FROM: standard forecast or significant change
Winds: from the NNE (20 degrees) at 9 MPH (8 knots; 4.2 m/s)
Visibility: 5 miles (8 km)
Clouds: few clouds at 1600 feet AGL
Weather: no significant weather forecast for this period
Text: PROB30
Forecast period: 0200 to 0800 UTC 29 June 2017
Forecast type: TEMPORARY: The following changes expected for less than half the time period
Winds: variable direction winds at 2 MPH (2 knots; 1.0 m/s)
Visibility: 1.86 miles (2.99 km)
Clouds: scattered clouds at 800 feet AGL
Weather: BR  (mist)
Text: TEMPO 2902/2908 VRB02KT 3000 BR SCT008
Forecast period: 1000 UTC 29 June 2017 to 0600 UTC 30 June 2017
Forecast type: BECOMING: Conditions expected to become as follows by 1200 UTC 29 June 2017
Winds: from the N (360 degrees) at 16 MPH (14 knots; 7.3 m/s)
Visibility: 6 or more miles (10+ km)
Weather: NSW  (no significant weather)

 AIRPORT MAP

 RUNWAY INFORMATION
Runway 17L Runway length 12205 ft Runway width 148 ft
Runway elevation 633 ft Runway displaced threshold 0 ft Runway heading 164
Runway 35R Runway length 12205 ft Runway width 148 ft
Runway elevation 656 ft Runway displaced threshold 0 ft Runway heading 344
Runway 17R Runway length 12205 ft Runway width 148 ft
Runway elevation 636 ft Runway displaced threshold 0 ft Runway heading 164
Runway 35L Runway length 12205 ft Runway width 148 ft
Runway elevation 656 ft Runway displaced threshold 0 ft Runway heading 344

 AIRPORT FREQUENCIES
Type APP Name APP Frequency 121.3 MHZ
Type ATIS Name ATIS Frequency 126.4 MHZ
Type TWR Name TWR Frequency 118.5 MHZ

 AIRPORT NEAR NAVIGATION AIDS
Type VOR-DME Name Casablanca Frequency 114000 KHZ



Powered by Virtual Airlines Manager [v2.6.2]